createdAt,value
2018-07-23T00:01:08.880Z,67.36
2018-07-23T00:03:37.993Z,67.46
2018-07-23T00:06:07.098Z,67.71
2018-07-23T00:08:36.215Z,67.62
2018-07-23T00:11:05.393Z,67.92
2018-07-23T00:13:34.534Z,67.91
2018-07-23T00:16:03.658Z,67.69
2018-07-23T00:18:32.709Z,67.57
2018-07-23T00:21:01.869Z,67.50
2018-07-23T00:23:30.965Z,67.78
2018-07-23T00:26:00.014Z,67.90
2018-07-23T00:28:29.140Z,68.56
2018-07-23T00:30:58.256Z,68.25
2018-07-23T00:33:27.368Z,68.98
2018-07-23T00:35:56.462Z,69.27
2018-07-23T00:38:25.541Z,68.98
2018-07-23T00:40:54.650Z,69.09
2018-07-23T00:43:23.779Z,68.94
2018-07-23T00:45:52.851Z,69.34
2018-07-23T00:48:21.992Z,68.97
2018-07-23T00:50:51.061Z,68.84
2018-07-23T00:53:20.185Z,68.84
2018-07-23T00:55:49.292Z,68.86
2018-07-23T00:58:18.392Z,69.19
2018-07-23T01:00:47.559Z,69.03
2018-07-23T01:03:16.723Z,69.05
2018-07-23T01:05:45.843Z,68.56
2018-07-23T01:08:14.952Z,68.03
2018-07-23T01:10:44.011Z,68.01
2018-07-23T01:13:13.172Z,67.93
2018-07-23T01:15:42.256Z,68.58
2018-07-23T01:18:11.368Z,68.66
2018-07-23T01:20:40.469Z,69.22
2018-07-23T01:23:09.597Z,69.14
2018-07-23T01:25:38.740Z,69.34
2018-07-23T01:28:07.729Z,69.08
2018-07-23T01:30:36.836Z,69.10
2018-07-23T01:33:05.770Z,69.54
2018-07-23T01:35:34.954Z,69.06
2018-07-23T01:38:04.091Z,69.05
2018-07-23T01:40:33.222Z,68.73
2018-07-23T01:43:02.406Z,68.88
2018-07-23T01:45:31.540Z,69.07
2018-07-23T01:48:00.651Z,69.30
2018-07-23T01:50:29.713Z,69.03
2018-07-23T01:52:58.901Z,68.69
2018-07-23T01:55:28.058Z,69.16
2018-07-23T01:57:57.234Z,69.17
2018-07-23T02:00:26.351Z,68.83
2018-07-23T02:02:55.457Z,68.83
2018-07-23T02:05:24.646Z,69.30
2018-07-23T02:07:53.774Z,69.45
2018-07-23T02:10:22.954Z,69.20
2018-07-23T02:12:52.052Z,69.59
2018-07-23T02:15:21.208Z,69.46
2018-07-23T02:17:50.399Z,69.59
2018-07-23T02:20:19.441Z,69.40
2018-07-23T02:22:48.530Z,69.05
2018-07-23T02:25:17.622Z,69.24
2018-07-23T02:27:46.756Z,69.15
2018-07-23T02:30:15.834Z,69.10
2018-07-23T02:32:44.897Z,69.05
2018-07-23T02:35:13.981Z,68.98
2018-07-23T02:37:43.066Z,69.50
2018-07-23T02:40:12.174Z,68.96
2018-07-23T02:42:41.290Z,69.06
2018-07-23T02:45:10.542Z,68.86
2018-07-23T02:47:39.691Z,68.79
2018-07-23T02:50:08.783Z,68.79
2018-07-23T02:52:37.981Z,68.98
2018-07-23T02:55:07.102Z,69.09
2018-07-23T02:57:36.224Z,69.51
2018-07-23T03:00:05.535Z,69.43
2018-07-23T03:02:34.674Z,69.20
2018-07-23T03:05:03.779Z,69.11
2018-07-23T03:07:32.858Z,69.16
2018-07-23T03:10:02.004Z,69.03
2018-07-23T03:12:31.170Z,69.26
2018-07-23T03:15:00.278Z,69.34
2018-07-23T03:17:29.419Z,69.37
2018-07-23T03:19:58.626Z,69.29
2018-07-23T03:22:27.776Z,69.40
2018-07-23T03:24:56.913Z,69.41
2018-07-23T03:27:26.062Z,69.32
2018-07-23T03:29:55.173Z,69.32
2018-07-23T03:32:24.326Z,69.41
2018-07-23T03:34:53.451Z,69.51
2018-07-23T03:37:22.612Z,69.60
2018-07-23T03:39:51.734Z,69.40
2018-07-23T03:42:20.793Z,69.28
2018-07-23T03:44:49.892Z,69.09
2018-07-23T03:47:19.007Z,69.15
2018-07-23T03:49:48.093Z,68.81
2018-07-23T03:52:17.200Z,68.53
2018-07-23T03:54:46.343Z,68.16
2018-07-23T03:57:15.469Z,67.84
2018-07-23T03:59:44.607Z,67.50
2018-07-23T04:02:14.073Z,67.49
2018-07-23T04:04:43.219Z,67.09
2018-07-23T04:07:12.346Z,66.99
2018-07-23T04:09:41.475Z,66.85
2018-07-23T04:12:10.535Z,66.73
2018-07-23T04:14:39.622Z,66.01
2018-07-23T04:17:08.776Z,65.65
2018-07-23T04:19:37.964Z,65.54
2018-07-23T04:22:07.475Z,65.46
2018-07-23T04:24:36.605Z,65.50
2018-07-23T04:27:05.731Z,65.19
2018-07-23T04:29:34.825Z,65.22
2018-07-23T04:32:03.994Z,64.87
2018-07-23T04:34:33.093Z,64.62
2018-07-23T04:37:02.148Z,64.44
2018-07-23T04:39:31.300Z,64.17
2018-07-23T04:42:00.929Z,63.97
2018-07-23T04:44:30.036Z,63.71
2018-07-23T04:46:59.155Z,63.31
2018-07-23T04:49:28.454Z,63.20
2018-07-23T04:51:57.594Z,63.03
2018-07-23T04:54:26.702Z,62.45
2018-07-23T04:56:55.808Z,62.21
2018-07-23T04:59:24.949Z,61.91
2018-07-23T05:01:54.014Z,61.88
2018-07-23T05:04:23.147Z,61.29
2018-07-23T05:06:52.303Z,61.43
2018-07-23T05:09:21.421Z,61.27
2018-07-23T05:11:50.567Z,61.81
2018-07-23T05:14:19.671Z,60.87
2018-07-23T05:16:48.805Z,60.89
2018-07-23T05:19:17.974Z,60.47
2018-07-23T05:21:47.147Z,59.44
2018-07-23T05:24:16.241Z,59.63
2018-07-23T05:26:45.375Z,59.52
2018-07-23T05:29:14.473Z,59.86
2018-07-23T05:31:43.647Z,59.66
2018-07-23T05:34:12.754Z,58.80
2018-07-23T05:36:41.890Z,59.18
2018-07-23T05:39:12.165Z,57.69
2018-07-23T05:41:41.472Z,56.91
2018-07-23T05:44:10.566Z,56.13
2018-07-23T05:46:39.716Z,55.74
2018-07-23T05:49:08.785Z,54.91
2018-07-23T05:51:37.907Z,54.25
2018-07-23T05:54:07.457Z,52.82
2018-07-23T05:56:36.594Z,51.78
2018-07-23T05:59:05.712Z,50.09
2018-07-23T06:01:34.819Z,41.05
2018-07-23T06:04:04.321Z,37.34
2018-07-23T06:06:33.508Z,37.32
2018-07-23T06:09:02.598Z,34.91
2018-07-23T06:11:31.718Z,35.88
2018-07-23T06:14:00.818Z,35.77
2018-07-23T06:16:29.921Z,34.93
2018-07-23T06:18:59.234Z,33.82
2018-07-23T06:21:28.356Z,31.70
2018-07-23T06:23:57.503Z,30.61
2018-07-23T06:26:26.641Z,29.62
2018-07-23T06:28:55.794Z,31.72
2018-07-23T06:31:24.913Z,28.75
2018-07-23T06:33:54.100Z,29.96
2018-07-23T06:36:23.234Z,28.71
2018-07-23T06:38:52.310Z,28.65
2018-07-23T06:41:21.456Z,28.31
2018-07-23T06:43:50.556Z,27.73
2018-07-23T06:46:19.788Z,27.97
2018-07-23T06:48:48.910Z,30.38
2018-07-23T06:51:18.079Z,33.62
2018-07-23T06:53:47.210Z,37.96
2018-07-23T06:56:16.383Z,39.23
2018-07-23T06:58:45.477Z,41.27
2018-07-23T07:01:14.580Z,42.38
2018-07-23T07:03:43.641Z,42.65
2018-07-23T07:06:12.769Z,42.90
2018-07-23T07:08:41.830Z,43.76
2018-07-23T07:11:10.989Z,43.46
2018-07-23T07:13:40.167Z,44.32
2018-07-23T07:16:09.287Z,44.27
2018-07-23T07:18:38.494Z,45.64
2018-07-23T07:21:08.251Z,46.22
2018-07-23T07:23:37.393Z,45.83
2018-07-23T07:26:06.883Z,45.81
2018-07-23T07:28:36.119Z,44.55
2018-07-23T07:31:05.232Z,44.22
2018-07-23T07:33:34.359Z,44.77
2018-07-23T07:36:03.442Z,44.44
2018-07-23T07:38:32.595Z,44.03
2018-07-23T07:41:01.745Z,42.94
2018-07-23T07:43:30.835Z,43.16
2018-07-23T07:45:59.901Z,44.20
2018-07-23T07:48:29.068Z,44.51
2018-07-23T07:50:58.918Z,45.03
2018-07-23T07:53:28.075Z,45.85
2018-07-23T07:55:57.206Z,44.52
2018-07-23T07:58:26.299Z,43.59
2018-07-23T08:00:55.539Z,43.87
2018-07-23T08:03:24.619Z,43.68
2018-07-23T08:05:53.717Z,43.29
2018-07-23T08:08:22.853Z,42.99
2018-07-23T08:10:51.962Z,42.84
2018-07-23T08:13:21.062Z,42.03
2018-07-23T08:15:50.225Z,40.69
2018-07-23T08:18:19.314Z,41.44
2018-07-23T08:20:48.379Z,41.55
2018-07-23T08:23:17.770Z,40.78
2018-07-23T08:25:46.959Z,40.47
2018-07-23T08:28:16.203Z,41.08
2018-07-23T08:30:45.522Z,40.42
2018-07-23T08:33:14.646Z,40.38
2018-07-23T08:35:43.878Z,39.41
2018-07-23T08:38:13.010Z,40.19
2018-07-23T08:40:42.104Z,38.32
2018-07-23T08:43:11.243Z,39.11
2018-07-23T08:45:40.354Z,38.58
2018-07-23T08:48:09.461Z,38.45
2018-07-23T08:50:38.567Z,37.95
2018-07-23T08:53:07.677Z,37.55
2018-07-23T08:55:36.734Z,38.11
2018-07-23T08:58:05.834Z,37.73
2018-07-23T09:00:35.035Z,37.26
2018-07-23T09:03:04.104Z,33.36
2018-07-23T09:05:33.271Z,30.03
2018-07-23T09:08:02.333Z,30.89
2018-07-23T09:10:31.458Z,30.50
2018-07-23T09:13:00.624Z,28.90
2018-07-23T09:15:29.711Z,27.12
2018-07-23T09:17:58.846Z,29.29
2018-07-23T09:20:27.893Z,29.21
2018-07-23T09:22:56.966Z,28.28
2018-07-23T09:25:30.133Z,25.45
2018-07-23T09:27:59.280Z,30.08
2018-07-23T09:30:33.769Z,26.91
2018-07-23T09:33:02.843Z,27.64
2018-07-23T09:35:31.976Z,27.02
2018-07-23T09:38:01.088Z,27.65
2018-07-23T09:40:30.174Z,26.88
2018-07-23T09:42:59.301Z,27.16
2018-07-23T09:45:28.475Z,26.80
2018-07-23T09:47:57.774Z,27.85
2018-07-23T09:50:26.898Z,26.62
2018-07-23T09:52:56.050Z,29.28
2018-07-23T09:55:25.370Z,27.23
2018-07-23T09:57:54.495Z,27.44
2018-07-23T10:00:28.742Z,28.37
2018-07-23T10:02:57.974Z,28.77
2018-07-23T10:05:27.025Z,29.20
2018-07-23T10:07:56.177Z,29.46
2018-07-23T10:10:25.326Z,29.00
2018-07-23T10:12:54.430Z,27.98
2018-07-23T10:15:23.577Z,28.18
2018-07-23T10:17:52.666Z,26.93
2018-07-23T10:20:21.758Z,28.01
2018-07-23T10:22:50.873Z,29.33
2018-07-23T10:25:19.955Z,28.80
2018-07-23T10:27:49.150Z,29.43
2018-07-23T10:30:18.273Z,30.41
2018-07-23T10:32:47.448Z,31.92
2018-07-23T10:35:16.527Z,32.61
2018-07-23T10:37:45.638Z,33.90
2018-07-23T10:40:14.721Z,35.27
2018-07-23T10:42:43.791Z,36.91
2018-07-23T10:45:12.901Z,35.76
2018-07-23T10:47:42.019Z,36.17
2018-07-23T10:50:11.126Z,36.00
2018-07-23T10:52:41.026Z,36.72
2018-07-23T10:55:10.129Z,35.72
2018-07-23T10:57:39.321Z,36.41
2018-07-23T11:00:08.764Z,37.23
2018-07-23T11:02:38.500Z,37.33
2018-07-23T11:05:08.655Z,37.37
2018-07-23T11:07:37.788Z,37.91
2018-07-23T11:10:08.296Z,37.58
2018-07-23T11:12:37.779Z,36.42
2018-07-23T11:15:08.378Z,36.03
2018-07-23T11:17:37.930Z,36.58
2018-07-23T11:20:10.124Z,35.53
2018-07-23T11:22:39.235Z,35.47
2018-07-23T11:25:38.503Z,34.95
2018-07-23T11:27:37.430Z,34.44
2018-07-23T11:30:06.591Z,34.56
2018-07-23T11:32:36.271Z,35.41
2018-07-23T11:35:05.352Z,35.96
2018-07-23T11:37:34.698Z,34.43
2018-07-23T11:40:03.935Z,33.69
2018-07-23T11:42:33.042Z,34.21
2018-07-23T11:45:02.122Z,34.82
2018-07-23T11:47:31.243Z,33.97
2018-07-23T11:50:00.346Z,34.31
2018-07-23T11:52:29.427Z,34.06
2018-07-23T11:54:59.014Z,33.91
2018-07-23T11:57:28.096Z,33.79
2018-07-23T11:59:57.202Z,32.56
2018-07-23T12:02:26.361Z,32.78
2018-07-23T12:04:55.508Z,32.76
2018-07-23T12:07:24.598Z,33.44
2018-07-23T12:09:53.719Z,33.64
2018-07-23T12:12:22.781Z,33.48
2018-07-23T12:14:51.890Z,32.39
2018-07-23T12:17:21.131Z,31.46
2018-07-23T12:22:47.141Z,30.92
2018-07-23T12:25:16.242Z,30.83
2018-07-23T12:27:45.317Z,30.76
2018-07-23T12:30:14.458Z,30.88
2018-07-23T12:32:43.538Z,29.98
2018-07-23T12:35:12.638Z,30.05
2018-07-23T12:37:41.799Z,30.28
2018-07-23T12:40:10.954Z,30.05
2018-07-23T12:42:40.274Z,30.48
2018-07-23T12:45:09.346Z,29.27
2018-07-23T12:47:38.472Z,28.69
2018-07-23T12:50:07.577Z,28.02
2018-07-23T12:52:36.828Z,29.06
2018-07-23T12:55:05.923Z,28.69
2018-07-23T12:57:34.979Z,28.69
2018-07-23T13:00:04.365Z,29.40
2018-07-23T13:02:33.478Z,29.48
2018-07-23T13:05:02.585Z,29.33
2018-07-23T13:07:31.923Z,28.77
2018-07-23T13:10:01.039Z,28.42
2018-07-23T13:12:30.430Z,27.82
2018-07-23T13:14:59.914Z,27.48
2018-07-23T13:17:28.985Z,27.33
2018-07-23T13:19:58.162Z,27.52
2018-07-23T13:22:27.284Z,27.48
2018-07-23T13:24:56.338Z,28.26
2018-07-23T13:27:25.466Z,28.43
2018-07-23T13:29:54.593Z,28.56
2018-07-23T13:32:23.748Z,27.86
2018-07-23T13:34:52.858Z,26.83
2018-07-23T13:37:21.945Z,26.51
2018-07-23T13:39:51.066Z,27.47
2018-07-23T13:42:20.156Z,27.10
2018-07-23T13:44:49.321Z,26.95
2018-07-23T13:47:18.281Z,26.77
2018-07-23T13:49:47.382Z,28.35
2018-07-23T13:52:16.499Z,28.38
2018-07-23T13:54:45.636Z,28.54
2018-07-23T13:57:14.791Z,27.98
2018-07-23T13:59:43.877Z,28.36
2018-07-23T14:02:13.008Z,27.14
2018-07-23T14:04:42.069Z,26.57
2018-07-23T14:07:11.169Z,28.12
2018-07-23T14:09:40.269Z,27.74
2018-07-23T14:12:09.410Z,27.89
2018-07-23T14:14:38.477Z,27.46
2018-07-23T14:17:07.602Z,28.00
2018-07-23T14:19:36.736Z,29.02
2018-07-23T14:22:05.865Z,29.49
2018-07-23T14:24:35.021Z,28.69
2018-07-23T14:27:04.158Z,29.83
2018-07-23T14:29:33.257Z,28.92
2018-07-23T14:32:02.351Z,29.81
2018-07-23T14:34:31.447Z,29.16
2018-07-23T14:37:00.621Z,28.67
2018-07-23T14:39:29.799Z,28.30
2018-07-23T14:41:58.930Z,28.31
2018-07-23T14:44:28.014Z,29.76
2018-07-23T14:46:57.156Z,29.73
2018-07-23T14:49:26.249Z,28.45
2018-07-23T14:51:55.347Z,29.04
2018-07-23T14:54:24.463Z,30.83
2018-07-23T14:56:53.650Z,30.36
2018-07-23T14:59:22.742Z,30.17
2018-07-23T15:01:51.935Z,30.81
2018-07-23T15:04:21.044Z,29.66
2018-07-23T15:06:50.103Z,28.68
2018-07-23T15:09:19.279Z,28.03
2018-07-23T15:11:48.468Z,28.08
2018-07-23T15:14:17.613Z,29.01
2018-07-23T15:16:46.743Z,29.31
2018-07-23T15:19:15.984Z,29.97
2018-07-23T15:21:51.826Z,29.04
2018-07-23T15:24:20.950Z,29.45
2018-07-23T15:26:50.070Z,29.58
2018-07-23T15:29:19.176Z,29.50
2018-07-23T15:31:48.268Z,29.92
2018-07-23T15:34:18.154Z,29.83
2018-07-23T15:36:47.405Z,29.08
2018-07-23T15:39:16.518Z,29.14
2018-07-23T15:41:45.687Z,29.08
2018-07-23T15:44:14.929Z,29.57
2018-07-23T15:46:43.956Z,30.41
2018-07-23T15:49:13.094Z,30.92
2018-07-23T15:51:42.187Z,31.79
2018-07-23T15:54:11.258Z,31.69
2018-07-23T15:56:40.441Z,31.00
2018-07-23T15:59:09.599Z,30.31
2018-07-23T16:01:38.665Z,30.21
2018-07-23T16:04:07.826Z,30.19
2018-07-23T16:06:36.893Z,30.17
2018-07-23T16:09:10.506Z,30.07
2018-07-23T16:11:39.597Z,29.65
2018-07-23T16:14:08.685Z,30.66
2018-07-23T16:16:37.989Z,30.96
2018-07-23T16:19:07.505Z,30.09
2018-07-23T16:21:36.616Z,30.11
2018-07-23T16:24:05.798Z,29.78
2018-07-23T16:26:34.899Z,30.05
2018-07-23T16:29:03.941Z,30.24
2018-07-23T16:31:33.076Z,30.46
2018-07-23T16:34:02.167Z,30.03
2018-07-23T16:36:31.274Z,30.24
2018-07-23T16:39:00.395Z,30.51
2018-07-23T16:41:30.505Z,30.28
2018-07-23T16:43:59.645Z,30.67
2018-07-23T16:46:28.804Z,30.43
2018-07-23T16:48:57.945Z,30.89
2018-07-23T16:51:27.023Z,31.03
2018-07-23T16:53:56.226Z,31.57
2018-07-23T16:56:25.344Z,31.43
2018-07-23T16:58:54.501Z,31.96
2018-07-23T17:01:23.586Z,32.07
2018-07-23T17:03:52.759Z,31.59
2018-07-23T17:06:21.860Z,31.33
2018-07-23T17:08:50.993Z,31.97
2018-07-23T17:11:20.124Z,31.13
2018-07-23T17:13:49.240Z,31.49
2018-07-23T17:16:18.346Z,32.20
2018-07-23T17:18:47.465Z,31.62
2018-07-23T17:21:16.581Z,31.81
2018-07-23T17:23:45.735Z,32.46
2018-07-23T17:26:14.961Z,31.87
2018-07-23T17:28:44.107Z,32.65
2018-07-23T17:31:13.236Z,32.54
2018-07-23T17:33:42.340Z,32.48
2018-07-23T17:36:11.476Z,32.94
2018-07-23T17:38:40.567Z,32.71
2018-07-23T17:41:09.572Z,32.24
2018-07-23T17:43:38.684Z,32.41
2018-07-23T17:46:07.755Z,33.10
2018-07-23T17:48:36.900Z,32.59
2018-07-23T17:51:06.060Z,32.69
2018-07-23T17:53:35.234Z,33.09
2018-07-23T17:56:04.324Z,32.90
2018-07-23T17:58:33.430Z,33.06
2018-07-23T18:01:02.421Z,33.18
2018-07-23T18:03:31.610Z,32.85
2018-07-23T18:06:00.838Z,32.90
2018-07-23T18:08:29.934Z,32.98
2018-07-23T18:10:59.083Z,33.27
2018-07-23T18:13:28.190Z,33.53
2018-07-23T18:15:57.306Z,33.55
2018-07-23T18:18:26.390Z,33.41
2018-07-23T18:20:55.481Z,33.17
2018-07-23T18:23:24.563Z,33.41
2018-07-23T18:25:53.703Z,33.65
2018-07-23T18:28:22.858Z,33.62
2018-07-23T18:30:52.353Z,33.77
2018-07-23T18:33:21.429Z,33.50
2018-07-23T18:35:50.508Z,33.86
2018-07-23T18:38:19.697Z,33.86
2018-07-23T18:40:48.827Z,34.26
2018-07-23T18:43:17.922Z,34.38
2018-07-23T18:45:47.095Z,34.12
2018-07-23T18:49:31.066Z,34.49
2018-07-23T18:52:00.205Z,34.69
2018-07-23T18:54:30.366Z,35.17
2018-07-23T18:57:00.681Z,35.24
2018-07-23T18:59:29.786Z,35.45
2018-07-23T19:01:59.489Z,35.02
2018-07-23T19:04:28.590Z,35.73
2018-07-23T19:06:57.751Z,35.21
2018-07-23T19:09:27.630Z,35.15
2018-07-23T19:11:57.545Z,35.34
2018-07-23T19:14:26.649Z,35.90
2018-07-23T19:16:56.722Z,35.98
2018-07-23T19:19:25.925Z,35.92
2018-07-23T19:21:55.001Z,35.84
2018-07-23T19:24:24.189Z,36.22
2018-07-23T19:26:53.288Z,36.49
2018-07-23T19:29:22.439Z,36.18
2018-07-23T19:31:51.744Z,36.75
2018-07-23T19:34:20.871Z,36.77
2018-07-23T19:36:49.979Z,36.55
2018-07-23T19:39:20.347Z,36.79
2018-07-23T19:41:49.452Z,37.05
2018-07-23T19:44:18.541Z,37.45
2018-07-23T19:46:47.719Z,37.71
2018-07-23T19:49:16.834Z,37.79
2018-07-23T19:51:45.935Z,38.30
2018-07-23T19:54:15.070Z,39.37
2018-07-23T19:56:44.205Z,39.78
2018-07-23T19:59:13.306Z,40.33
2018-07-23T20:01:42.412Z,41.18
2018-07-23T20:04:11.518Z,41.71
2018-07-23T20:06:40.600Z,41.99
2018-07-23T20:09:11.149Z,41.80
2018-07-23T20:11:40.162Z,42.70
2018-07-23T20:14:09.288Z,42.40
2018-07-23T20:16:38.446Z,42.89
2018-07-23T20:19:07.556Z,43.30
2018-07-23T20:21:36.638Z,43.18
2018-07-23T20:24:05.800Z,43.02
2018-07-23T20:26:34.891Z,43.36
2018-07-23T20:29:03.979Z,43.34
2018-07-23T20:31:33.086Z,43.20
2018-07-23T20:34:02.219Z,43.55
2018-07-23T20:36:31.355Z,43.45
2018-07-23T20:39:00.537Z,43.71
2018-07-23T20:41:29.625Z,44.29
2018-07-23T20:43:58.720Z,44.20
2018-07-23T20:46:27.888Z,44.71
2018-07-23T20:48:57.060Z,44.68
2018-07-23T20:51:26.223Z,45.04
2018-07-23T20:53:55.382Z,45.08
2018-07-23T20:56:24.469Z,45.50
2018-07-23T20:58:53.593Z,45.58
2018-07-23T21:01:22.668Z,45.71
2018-07-23T21:03:51.908Z,45.95
2018-07-23T21:06:20.971Z,45.62
2018-07-23T21:08:50.057Z,46.31
2018-07-23T21:11:19.186Z,45.96
2018-07-23T21:13:48.318Z,46.03
2018-07-23T21:16:17.402Z,46.43
2018-07-23T21:18:46.513Z,46.60
2018-07-23T21:21:15.600Z,46.65
2018-07-23T21:23:44.748Z,47.04
2018-07-23T21:26:13.899Z,47.29
2018-07-23T21:28:43.092Z,47.45
2018-07-23T21:31:12.224Z,47.48
2018-07-23T21:33:41.342Z,47.60
2018-07-23T21:36:10.406Z,47.59
2018-07-23T21:38:46.143Z,48.04
2018-07-23T21:41:15.245Z,48.16
2018-07-23T21:43:44.365Z,49.12
2018-07-23T21:46:13.527Z,49.69
2018-07-23T21:48:42.599Z,49.97
2018-07-23T21:51:11.681Z,50.23
2018-07-23T21:53:40.776Z,50.38
2018-07-23T21:56:09.925Z,50.42
2018-07-23T21:58:39.017Z,50.77
2018-07-23T22:01:08.073Z,50.87
2018-07-23T22:03:37.194Z,51.11
2018-07-23T22:06:06.319Z,50.96
2018-07-23T22:08:35.397Z,51.07
2018-07-23T22:11:04.502Z,51.80
2018-07-23T22:13:33.594Z,51.93
2018-07-23T22:16:02.865Z,51.66
2018-07-23T22:18:32.007Z,51.26
2018-07-23T22:21:01.093Z,51.01
2018-07-23T22:23:30.239Z,51.24
2018-07-23T22:25:59.341Z,51.47
2018-07-23T22:28:28.401Z,51.37
2018-07-23T22:30:57.505Z,50.89
2018-07-23T22:33:26.577Z,50.66
2018-07-23T22:35:55.714Z,50.90
2018-07-23T22:38:24.815Z,50.90
2018-07-23T22:40:53.935Z,51.33
2018-07-23T22:43:23.037Z,51.10
2018-07-23T22:45:52.224Z,51.25
2018-07-23T22:48:21.311Z,51.48
2018-07-23T22:50:50.421Z,51.50
2018-07-23T22:53:19.562Z,51.72
2018-07-23T22:55:48.722Z,52.22
2018-07-23T22:58:17.852Z,52.33
2018-07-23T23:00:46.974Z,52.45
2018-07-23T23:03:16.043Z,52.08
2018-07-23T23:05:45.166Z,52.23
2018-07-23T23:08:14.233Z,52.54
2018-07-23T23:10:43.289Z,52.54
2018-07-23T23:13:12.529Z,53.17
2018-07-23T23:15:41.676Z,53.14
2018-07-23T23:18:10.758Z,52.83
2018-07-23T23:20:39.910Z,53.33
2018-07-23T23:23:08.951Z,53.14
2018-07-23T23:25:38.065Z,53.23
2018-07-23T23:28:07.167Z,53.67
2018-07-23T23:30:36.231Z,53.66
2018-07-23T23:33:05.308Z,53.59
2018-07-23T23:35:34.311Z,53.85
2018-07-23T23:38:03.414Z,54.09
2018-07-23T23:40:32.515Z,54.32
2018-07-23T23:43:01.597Z,54.37
2018-07-23T23:45:30.722Z,54.27
2018-07-23T23:47:59.846Z,54.06
2018-07-23T23:50:28.970Z,54.20
2018-07-23T23:52:58.088Z,54.81
2018-07-23T23:55:27.182Z,54.72
2018-07-23T23:57:56.279Z,55.31
